sensor_id;sensor_type;location;lat;lon;timestamp;pressure;altitude;pressure_sealevel;temperature;humidity
59063;BME280;44851;45.648;9.004;2022-11-12T00:01:15;100737.72;;;9.87;67.17
59063;BME280;44851;45.648;9.004;2022-11-12T00:03:40;100733.47;;;9.86;66.87
59063;BME280;44851;45.648;9.004;2022-11-12T00:06:06;100730.94;;;9.70;67.39
59063;BME280;44851;45.648;9.004;2022-11-12T00:08:32;100732.19;;;9.63;67.84
59063;BME280;44851;45.648;9.004;2022-11-12T00:10:57;100724.97;;;9.68;67.89
59063;BME280;44851;45.648;9.004;2022-11-12T00:13:22;100717.06;;;9.84;67.96
59063;BME280;44851;45.648;9.004;2022-11-12T00:15:48;100717.72;;;9.88;67.34
59063;BME280;44851;45.648;9.004;2022-11-12T00:18:13;100716.44;;;9.80;67.63
59063;BME280;44851;45.648;9.004;2022-11-12T00:20:39;100711.03;;;9.83;68.27
59063;BME280;44851;45.648;9.004;2022-11-12T00:23:04;100703.88;;;9.87;68.16
59063;BME280;44851;45.648;9.004;2022-11-12T00:25:29;100705.44;;;9.90;67.62
59063;BME280;44851;45.648;9.004;2022-11-12T00:28:06;100706.00;;;9.95;67.15
59063;BME280;44851;45.648;9.004;2022-11-12T00:30:33;100709.81;;;9.89;68.42
59063;BME280;44851;45.648;9.004;2022-11-12T00:33:02;100704.31;;;9.79;68.39
59063;BME280;44851;45.648;9.004;2022-11-12T00:35:30;100697.53;;;9.77;68.98
59063;BME280;44851;45.648;9.004;2022-11-12T00:37:56;100698.00;;;9.69;69.26
59063;BME280;44851;45.648;9.004;2022-11-12T00:40:22;100690.41;;;9.80;68.63
59063;BME280;44851;45.648;9.004;2022-11-12T00:42:49;100693.34;;;9.74;68.04
59063;BME280;44851;45.648;9.004;2022-11-12T00:45:15;100685.72;;;9.71;68.62
59063;BME280;44851;45.648;9.004;2022-11-12T00:47:41;100682.84;;;9.76;68.58
59063;BME280;44851;45.648;9.004;2022-11-12T00:50:06;100691.03;;;9.84;68.19
59063;BME280;44851;45.648;9.004;2022-11-12T00:52:32;100690.41;;;9.80;69.06
59063;BME280;44851;45.648;9.004;2022-11-12T00:54:57;100694.09;;;9.76;68.90
59063;BME280;44851;45.648;9.004;2022-11-12T00:57:23;100689.16;;;9.72;68.31
59063;BME280;44851;45.648;9.004;2022-11-12T00:59:48;100680.16;;;9.77;68.40
59063;BME280;44851;45.648;9.004;2022-11-12T01:02:14;100682.38;;;9.83;68.63
59063;BME280;44851;45.648;9.004;2022-11-12T01:04:39;100683.66;;;9.62;68.22
59063;BME280;44851;45.648;9.004;2022-11-12T01:07:04;100673.53;;;9.57;68.36
59063;BME280;44851;45.648;9.004;2022-11-12T01:09:30;100679.19;;;9.64;68.13
59063;BME280;44851;45.648;9.004;2022-11-12T01:11:55;100673.00;;;9.67;67.91
59063;BME280;44851;45.648;9.004;2022-11-12T01:14:20;100669.34;;;9.55;68.97
59063;BME280;44851;45.648;9.004;2022-11-12T01:16:46;100665.00;;;9.55;69.01
59063;BME280;44851;45.648;9.004;2022-11-12T01:19:11;100665.81;;;9.56;68.15
59063;BME280;44851;45.648;9.004;2022-11-12T01:21:40;100670.72;;;9.46;68.01
59063;BME280;44851;45.648;9.004;2022-11-12T01:24:07;100666.72;;;9.41;68.09
59063;BME280;44851;45.648;9.004;2022-11-12T01:26:33;100660.78;;;9.39;68.81
59063;BME280;44851;45.648;9.004;2022-11-12T01:28:58;100658.69;;;9.29;68.77
59063;BME280;44851;45.648;9.004;2022-11-12T01:31:29;100659.53;;;9.30;68.60
59063;BME280;44851;45.648;9.004;2022-11-12T01:33:57;100659.84;;;9.40;68.72
59063;BME280;44851;45.648;9.004;2022-11-12T01:36:24;100656.25;;;9.26;68.23
59063;BME280;44851;45.648;9.004;2022-11-12T01:38:51;100659.47;;;9.32;68.28
59063;BME280;44851;45.648;9.004;2022-11-12T01:41:20;100649.44;;;9.40;68.43
59063;BME280;44851;45.648;9.004;2022-11-12T01:43:46;100644.19;;;9.25;68.36
59063;BME280;44851;45.648;9.004;2022-11-12T01:46:18;100647.34;;;9.30;68.13
59063;BME280;44851;45.648;9.004;2022-11-12T01:48:57;100641.41;;;9.28;68.68
59063;BME280;44851;45.648;9.004;2022-11-12T01:51:31;100640.38;;;9.31;68.13
59063;BME280;44851;45.648;9.004;2022-11-12T01:54:01;100625.03;;;9.26;68.47
59063;BME280;44851;45.648;9.004;2022-11-12T01:56:29;100621.97;;;9.20;68.56
59063;BME280;44851;45.648;9.004;2022-11-12T01:59:01;100616.41;;;9.26;68.27
59063;BME280;44851;45.648;9.004;2022-11-12T02:01:29;100608.44;;;9.29;68.65
59063;BME280;44851;45.648;9.004;2022-11-12T02:03:54;100599.22;;;9.23;68.65
59063;BME280;44851;45.648;9.004;2022-11-12T02:06:20;100597.34;;;9.25;68.23
59063;BME280;44851;45.648;9.004;2022-11-12T02:08:47;100598.13;;;9.27;68.04
59063;BME280;44851;45.648;9.004;2022-11-12T02:11:17;100596.63;;;9.23;68.32
59063;BME280;44851;45.648;9.004;2022-11-12T02:13:44;100589.53;;;9.25;68.11
59063;BME280;44851;45.648;9.004;2022-11-12T02:16:41;100604.13;;;9.14;67.62
59063;BME280;44851;45.648;9.004;2022-11-12T02:19:11;100605.53;;;9.19;68.44
59063;BME280;44851;45.648;9.004;2022-11-12T02:21:38;100607.84;;;9.24;67.97
59063;BME280;44851;45.648;9.004;2022-11-12T02:26:40;100604.59;;;9.20;69.37
59063;BME280;44851;45.648;9.004;2022-11-12T02:29:07;100601.69;;;9.11;69.21
59063;BME280;44851;45.648;9.004;2022-11-12T02:31:33;100599.75;;;9.14;69.05
59063;BME280;44851;45.648;9.004;2022-11-12T02:33:58;100608.59;;;9.12;68.81
59063;BME280;44851;45.648;9.004;2022-11-12T02:36:24;100606.44;;;9.04;68.82
59063;BME280;44851;45.648;9.004;2022-11-12T02:38:50;100599.03;;;9.12;68.22
59063;BME280;44851;45.648;9.004;2022-11-12T02:41:16;100595.50;;;9.13;68.68
59063;BME280;44851;45.648;9.004;2022-11-12T02:43:42;100594.19;;;9.06;68.56
59063;BME280;44851;45.648;9.004;2022-11-12T02:46:07;100590.66;;;9.07;68.54
59063;BME280;44851;45.648;9.004;2022-11-12T02:48:33;100584.88;;;9.02;69.17
59063;BME280;44851;45.648;9.004;2022-11-12T02:50:58;100592.94;;;8.97;69.08
59063;BME280;44851;45.648;9.004;2022-11-12T02:53:24;100591.03;;;9.01;68.68
59063;BME280;44851;45.648;9.004;2022-11-12T02:55:49;100593.69;;;8.99;69.41
59063;BME280;44851;45.648;9.004;2022-11-12T02:58:15;100590.38;;;9.12;69.14
59063;BME280;44851;45.648;9.004;2022-11-12T03:00:40;100594.00;;;9.09;68.93
59063;BME280;44851;45.648;9.004;2022-11-12T03:03:06;100590.00;;;9.03;68.71
59063;BME280;44851;45.648;9.004;2022-11-12T03:05:33;100583.56;;;8.95;68.87
59063;BME280;44851;45.648;9.004;2022-11-12T03:08:01;100580.94;;;8.95;68.62
59063;BME280;44851;45.648;9.004;2022-11-12T03:10:27;100572.06;;;8.99;68.47
59063;BME280;44851;45.648;9.004;2022-11-12T03:12:55;100576.06;;;8.90;69.32
59063;BME280;44851;45.648;9.004;2022-11-12T03:15:20;100561.44;;;8.88;69.04
59063;BME280;44851;45.648;9.004;2022-11-12T03:17:46;100557.44;;;8.82;68.70
59063;BME280;44851;45.648;9.004;2022-11-12T03:20:12;100552.16;;;8.84;69.14
59063;BME280;44851;45.648;9.004;2022-11-12T03:22:39;100553.66;;;8.88;69.09
59063;BME280;44851;45.648;9.004;2022-11-12T03:25:05;100552.16;;;8.84;69.08
59063;BME280;44851;45.648;9.004;2022-11-12T03:27:31;100552.16;;;8.84;69.02
59063;BME280;44851;45.648;9.004;2022-11-12T03:29:57;100548.28;;;8.91;69.52
59063;BME280;44851;45.648;9.004;2022-11-12T03:32:23;100546.41;;;8.93;68.76
59063;BME280;44851;45.648;9.004;2022-11-12T03:34:48;100551.41;;;8.82;69.20
59063;BME280;44851;45.648;9.004;2022-11-12T03:37:14;100551.25;;;8.85;68.84
59063;BME280;44851;45.648;9.004;2022-11-12T03:39:39;100548.81;;;8.82;69.40
59063;BME280;44851;45.648;9.004;2022-11-12T03:42:05;100543.44;;;8.85;69.50
59063;BME280;44851;45.648;9.004;2022-11-12T03:44:30;100552.06;;;8.85;69.39
59063;BME280;44851;45.648;9.004;2022-11-12T03:46:56;100547.72;;;8.86;68.67
59063;BME280;44851;45.648;9.004;2022-11-12T03:49:21;100555.31;;;8.89;69.38
59063;BME280;44851;45.648;9.004;2022-11-12T03:51:46;100555.31;;;8.89;68.96
59063;BME280;44851;45.648;9.004;2022-11-12T03:54:12;100558.00;;;8.87;69.15
59063;BME280;44851;45.648;9.004;2022-11-12T03:56:38;100556.66;;;8.96;69.00
59063;BME280;44851;45.648;9.004;2022-11-12T03:59:04;100554.69;;;8.99;68.58
59063;BME280;44851;45.648;9.004;2022-11-12T04:01:29;100545.94;;;8.86;68.41
59063;BME280;44851;45.648;9.004;2022-11-12T04:03:55;100545.47;;;8.80;68.49
59063;BME280;44851;45.648;9.004;2022-11-12T04:06:20;100552.50;;;8.77;68.73
59063;BME280;44851;45.648;9.004;2022-11-12T04:09:04;100549.34;;;8.72;69.21
59063;BME280;44851;45.648;9.004;2022-11-12T04:11:30;100544.53;;;8.81;68.95
59063;BME280;44851;45.648;9.004;2022-11-12T04:13:55;100542.47;;;8.71;68.80
59063;BME280;44851;45.648;9.004;2022-11-12T04:16:22;100543.78;;;8.78;69.06
59063;BME280;44851;45.648;9.004;2022-11-12T04:19:10;100533.75;;;8.72;69.79
59063;BME280;44851;45.648;9.004;2022-11-12T04:22:09;100536.34;;;8.72;69.61
59063;BME280;44851;45.648;9.004;2022-11-12T04:24:37;100528.06;;;8.66;69.69
59063;BME280;44851;45.648;9.004;2022-11-12T04:27:23;100527.59;;;8.59;69.99
59063;BME280;44851;45.648;9.004;2022-11-12T04:29:50;100528.25;;;8.63;70.19
59063;BME280;44851;45.648;9.004;2022-11-12T04:32:37;100527.41;;;8.62;69.93
59063;BME280;44851;45.648;9.004;2022-11-12T04:35:04;100517.72;;;8.50;70.57
59063;BME280;44851;45.648;9.004;2022-11-12T04:37:32;100521.84;;;8.68;69.95
59063;BME280;44851;45.648;9.004;2022-11-12T04:40:21;100519.41;;;8.51;68.87
59063;BME280;44851;45.648;9.004;2022-11-12T04:43:08;100527.78;;;8.56;69.62
59063;BME280;44851;45.648;9.004;2022-11-12T04:45:53;100524.94;;;8.45;70.67
59063;BME280;44851;45.648;9.004;2022-11-12T04:48:21;100526.84;;;8.57;70.96
59063;BME280;44851;45.648;9.004;2022-11-12T04:50:49;100520.00;;;8.70;69.73
59063;BME280;44851;45.648;9.004;2022-11-12T04:53:17;100521.69;;;8.71;69.97
59063;BME280;44851;45.648;9.004;2022-11-12T04:55:43;100518.16;;;8.72;69.43
59063;BME280;44851;45.648;9.004;2022-11-12T04:58:08;100516.66;;;8.68;69.47
59063;BME280;44851;45.648;9.004;2022-11-12T05:00:34;100520.91;;;8.55;69.69
59063;BME280;44851;45.648;9.004;2022-11-12T05:03:00;100523.28;;;8.44;70.54
59063;BME280;44851;45.648;9.004;2022-11-12T05:05:25;100532.59;;;8.62;69.98
59063;BME280;44851;45.648;9.004;2022-11-12T05:07:50;100528.25;;;8.63;69.58
59063;BME280;44851;45.648;9.004;2022-11-12T05:10:16;100529.63;;;8.54;68.92
59063;BME280;44851;45.648;9.004;2022-11-12T05:12:42;100529.94;;;8.64;68.96
59063;BME280;44851;45.648;9.004;2022-11-12T05:15:08;100524.81;;;8.62;69.17
59063;BME280;44851;45.648;9.004;2022-11-12T05:17:35;100520.06;;;8.55;68.96
59063;BME280;44851;45.648;9.004;2022-11-12T05:20:01;100514.56;;;8.45;68.83
59063;BME280;44851;45.648;9.004;2022-11-12T05:22:26;100511.91;;;8.31;69.85
59063;BME280;44851;45.648;9.004;2022-11-12T05:24:52;100513.41;;;8.35;69.46
59063;BME280;44851;45.648;9.004;2022-11-12T05:27:19;100516.44;;;8.43;69.57
59063;BME280;44851;45.648;9.004;2022-11-12T05:29:45;100513.63;;;8.46;69.29
59063;BME280;44851;45.648;9.004;2022-11-12T05:32:13;100504.06;;;8.46;69.47
59063;BME280;44851;45.648;9.004;2022-11-12T05:34:40;100504.34;;;8.42;69.89
59063;BME280;44851;45.648;9.004;2022-11-12T05:37:06;100495.81;;;8.40;69.79
59063;BME280;44851;45.648;9.004;2022-11-12T05:39:32;100493.41;;;8.37;69.76
59063;BME280;44851;45.648;9.004;2022-11-12T05:41:57;100497.47;;;8.41;69.50
59063;BME280;44851;45.648;9.004;2022-11-12T05:44:23;100502.03;;;8.37;69.93
59063;BME280;44851;45.648;9.004;2022-11-12T05:46:49;100493.66;;;8.32;69.99
59063;BME280;44851;45.648;9.004;2022-11-12T05:49:14;100495.06;;;8.38;69.90
59063;BME280;44851;45.648;9.004;2022-11-12T05:51:40;100493.41;;;8.37;70.09
59063;BME280;44851;45.648;9.004;2022-11-12T05:54:06;100496.84;;;8.37;70.57
59063;BME280;44851;45.648;9.004;2022-11-12T05:56:32;100500.06;;;8.41;70.15
59063;BME280;44851;45.648;9.004;2022-11-12T05:58:57;100498.91;;;8.31;69.88
59063;BME280;44851;45.648;9.004;2022-11-12T06:01:23;100502.97;;;8.20;70.24
59063;BME280;44851;45.648;9.004;2022-11-12T06:03:49;100499.84;;;8.30;70.03
59063;BME280;44851;45.648;9.004;2022-11-12T06:06:14;100501.19;;;8.37;70.62
59063;BME280;44851;45.648;9.004;2022-11-12T06:08:39;100499.44;;;8.37;69.05
59063;BME280;44851;45.648;9.004;2022-11-12T06:11:05;100494.50;;;8.33;69.29
59063;BME280;44851;45.648;9.004;2022-11-12T06:13:30;100496.00;;;8.37;69.66
59063;BME280;44851;45.648;9.004;2022-11-12T06:15:56;100504.88;;;8.33;69.24
59063;BME280;44851;45.648;9.004;2022-11-12T06:18:22;100499.81;;;8.45;70.10
59063;BME280;44851;45.648;9.004;2022-11-12T06:20:49;100496.84;;;8.37;70.15
59063;BME280;44851;45.648;9.004;2022-11-12T06:23:34;100498.63;;;8.51;70.16
59063;BME280;44851;45.648;9.004;2022-11-12T06:26:00;100508.44;;;8.46;69.71
59063;BME280;44851;45.648;9.004;2022-11-12T06:28:26;100506.81;;;8.59;70.29
59063;BME280;44851;45.648;9.004;2022-11-12T06:30:51;100513.84;;;8.57;69.79
59063;BME280;44851;45.648;9.004;2022-11-12T06:33:17;100516.94;;;8.34;70.00
59063;BME280;44851;45.648;9.004;2022-11-12T06:35:42;100521.06;;;8.52;69.94
59063;BME280;44851;45.648;9.004;2022-11-12T06:38:08;100520.13;;;8.39;70.92
59063;BME280;44851;45.648;9.004;2022-11-12T06:40:33;100519.91;;;8.42;71.04
59063;BME280;44851;45.648;9.004;2022-11-12T06:42:59;100518.44;;;8.38;70.73
59063;BME280;44851;45.648;9.004;2022-11-12T06:45:24;100515.59;;;8.42;70.55
59063;BME280;44851;45.648;9.004;2022-11-12T06:47:50;100516.44;;;8.43;70.71
59063;BME280;44851;45.648;9.004;2022-11-12T06:50:15;100520.75;;;8.58;70.68
59063;BME280;44851;45.648;9.004;2022-11-12T06:52:41;100513.56;;;8.47;69.90
59063;BME280;44851;45.648;9.004;2022-11-12T06:55:06;100511.81;;;8.48;69.90
59063;BME280;44851;45.648;9.004;2022-11-12T06:57:35;100526.09;;;8.55;70.27
59063;BME280;44851;45.648;9.004;2022-11-12T07:00:00;100519.75;;;8.45;70.40
59063;BME280;44851;45.648;9.004;2022-11-12T07:02:26;100517.72;;;8.50;70.22
59063;BME280;44851;45.648;9.004;2022-11-12T07:04:51;100510.69;;;8.52;70.32
59063;BME280;44851;45.648;9.004;2022-11-12T07:07:17;100503.44;;;8.57;70.55
59063;BME280;44851;45.648;9.004;2022-11-12T07:09:42;100510.25;;;8.60;70.21
59063;BME280;44851;45.648;9.004;2022-11-12T07:12:08;100503.94;;;8.64;70.25
59063;BME280;44851;45.648;9.004;2022-11-12T07:14:33;100499.84;;;8.60;70.30
59063;BME280;44851;45.648;9.004;2022-11-12T07:16:59;100507.75;;;8.72;70.91
59063;BME280;44851;45.648;9.004;2022-11-12T07:19:24;100507.59;;;8.75;71.37
59063;BME280;44851;45.648;9.004;2022-11-12T07:21:50;100506.56;;;8.78;70.63
59063;BME280;44851;45.648;9.004;2022-11-12T07:24:15;100498.84;;;8.76;71.06
59063;BME280;44851;45.648;9.004;2022-11-12T07:26:41;100495.69;;;8.71;71.33
59063;BME280;44851;45.648;9.004;2022-11-12T07:29:06;100496.91;;;8.80;70.54
59063;BME280;44851;45.648;9.004;2022-11-12T07:31:31;100496.09;;;8.80;70.81
59063;BME280;44851;45.648;9.004;2022-11-12T07:33:57;100496.09;;;8.80;71.16
59063;BME280;44851;45.648;9.004;2022-11-12T07:36:22;100499.03;;;8.88;70.89
59063;BME280;44851;45.648;9.004;2022-11-12T07:38:50;100494.41;;;8.93;70.62
59063;BME280;44851;45.648;9.004;2022-11-12T07:41:21;100501.47;;;8.91;69.72
59063;BME280;44851;45.648;9.004;2022-11-12T07:43:49;100502.94;;;8.95;70.09
59063;BME280;44851;45.648;9.004;2022-11-12T07:46:20;100495.53;;;9.03;69.91
59063;BME280;44851;45.648;9.004;2022-11-12T07:48:46;100496.25;;;9.05;70.46
59063;BME280;44851;45.648;9.004;2022-11-12T07:53:40;100484.56;;;9.12;70.82
59063;BME280;44851;45.648;9.004;2022-11-12T07:56:06;100486.13;;;9.15;71.24
59063;BME280;44851;45.648;9.004;2022-11-12T07:58:32;100488.94;;;9.12;71.55
59063;BME280;44851;45.648;9.004;2022-11-12T08:01:07;100490.22;;;9.19;71.21
59063;BME280;44851;45.648;9.004;2022-11-12T08:03:33;100495.25;;;9.22;71.32
59063;BME280;44851;45.648;9.004;2022-11-12T08:05:59;100494.78;;;9.15;71.39
59063;BME280;44851;45.648;9.004;2022-11-12T08:08:25;100497.75;;;9.23;72.06
59063;BME280;44851;45.648;9.004;2022-11-12T08:10:57;100488.19;;;9.24;70.75
59063;BME280;44851;45.648;9.004;2022-11-12T08:13:23;100479.81;;;9.19;71.99
59063;BME280;44851;45.648;9.004;2022-11-12T08:15:49;100483.06;;;9.37;72.17
59063;BME280;44851;45.648;9.004;2022-11-12T08:18:14;100485.69;;;9.37;72.55
59063;BME280;44851;45.648;9.004;2022-11-12T08:20:40;100486.50;;;9.37;72.87
59063;BME280;44851;45.648;9.004;2022-11-12T08:23:06;100477.50;;;9.43;72.09
59063;BME280;44851;45.648;9.004;2022-11-12T08:25:31;100483.56;;;9.43;72.37
59063;BME280;44851;45.648;9.004;2022-11-12T08:27:58;100488.72;;;9.57;72.56
59063;BME280;44851;45.648;9.004;2022-11-12T08:30:24;100490.56;;;9.70;73.03
59063;BME280;44851;45.648;9.004;2022-11-12T08:32:58;100484.75;;;9.79;72.48
59063;BME280;44851;45.648;9.004;2022-11-12T08:35:25;100484.28;;;9.87;71.98
59063;BME280;44851;45.648;9.004;2022-11-12T08:37:55;100473.31;;;10.08;72.55
59063;BME280;44851;45.648;9.004;2022-11-12T08:40:21;100466.44;;;10.20;71.65
59063;BME280;44851;45.648;9.004;2022-11-12T08:42:46;100459.88;;;10.27;70.96
59063;BME280;44851;45.648;9.004;2022-11-12T08:45:12;100455.75;;;10.38;72.47
59063;BME280;44851;45.648;9.004;2022-11-12T08:47:37;100444.47;;;10.37;71.73
59063;BME280;44851;45.648;9.004;2022-11-12T08:50:03;100452.84;;;10.55;71.14
59063;BME280;44851;45.648;9.004;2022-11-12T08:52:28;100450.97;;;10.70;70.82
59063;BME280;44851;45.648;9.004;2022-11-12T08:54:54;100455.16;;;10.85;69.97
59063;BME280;44851;45.648;9.004;2022-11-12T08:57:19;100448.69;;;10.91;70.58
59063;BME280;44851;45.648;9.004;2022-11-12T08:59:44;100445.34;;;11.01;71.16
59063;BME280;44851;45.648;9.004;2022-11-12T09:02:11;100440.13;;;11.01;71.18
59063;BME280;44851;45.648;9.004;2022-11-12T09:04:37;100437.63;;;11.00;70.90
59063;BME280;44851;45.648;9.004;2022-11-12T09:07:02;100441.16;;;11.11;71.70
59063;BME280;44851;45.648;9.004;2022-11-12T09:09:27;100445.41;;;11.12;70.66
59063;BME280;44851;45.648;9.004;2022-11-12T09:11:53;100437.56;;;11.25;70.44
59063;BME280;44851;45.648;9.004;2022-11-12T09:14:18;100433.97;;;11.39;71.22
59063;BME280;44851;45.648;9.004;2022-11-12T09:16:45;100433.75;;;11.42;70.80
59063;BME280;44851;45.648;9.004;2022-11-12T09:19:10;100443.19;;;11.56;69.95
59063;BME280;44851;45.648;9.004;2022-11-12T09:21:36;100437.31;;;11.65;69.50
59063;BME280;44851;45.648;9.004;2022-11-12T09:24:01;100439.31;;;11.85;69.38
59063;BME280;44851;45.648;9.004;2022-11-12T09:26:27;100445.63;;;12.07;68.93
59063;BME280;44851;45.648;9.004;2022-11-12T09:28:52;100455.78;;;12.23;67.69
59063;BME280;44851;45.648;9.004;2022-11-12T09:31:19;100459.59;;;12.30;68.51
59063;BME280;44851;45.648;9.004;2022-11-12T09:33:44;100467.38;;;12.54;67.21
59063;BME280;44851;45.648;9.004;2022-11-12T09:36:09;100466.72;;;12.74;65.95
59063;BME280;44851;45.648;9.004;2022-11-12T09:38:35;100458.13;;;12.94;66.75
59063;BME280;44851;45.648;9.004;2022-11-12T09:41:15;100461.25;;;13.11;65.82
59063;BME280;44851;45.648;9.004;2022-11-12T09:43:53;100445.06;;;13.28;65.46
59063;BME280;44851;45.648;9.004;2022-11-12T09:52:00;100453.41;;;13.33;65.08
59063;BME280;44851;45.648;9.004;2022-11-12T09:54:30;100460.06;;;13.15;62.92
59063;BME280;44851;45.648;9.004;2022-11-12T09:56:56;100463.16;;;13.20;63.92
59063;BME280;44851;45.648;9.004;2022-11-12T09:59:25;100444.13;;;13.18;62.24
59063;BME280;44851;45.648;9.004;2022-11-12T10:10:49;100423.63;;;13.34;63.53
59063;BME280;44851;45.648;9.004;2022-11-12T10:21:43;100416.84;;;13.75;61.33
59063;BME280;44851;45.648;9.004;2022-11-12T10:24:11;100416.03;;;13.74;61.20
59063;BME280;44851;45.648;9.004;2022-11-12T10:26:37;100405.94;;;13.91;64.87
59063;BME280;44851;45.648;9.004;2022-11-12T10:31:35;100397.81;;;13.94;60.75
59063;BME280;44851;45.648;9.004;2022-11-12T10:36:41;100387.16;;;14.07;57.87
59063;BME280;44851;45.648;9.004;2022-11-12T10:39:08;100391.06;;;14.12;60.00
59063;BME280;44851;45.648;9.004;2022-11-12T10:41:34;100392.34;;;14.18;60.59
59063;BME280;44851;45.648;9.004;2022-11-12T10:44:04;100388.09;;;14.06;60.14
59063;BME280;44851;45.648;9.004;2022-11-12T10:46:32;100386.06;;;14.09;62.28
59063;BME280;44851;45.648;9.004;2022-11-12T10:49:16;100375.13;;;14.04;62.59
59063;BME280;44851;45.648;9.004;2022-11-12T10:51:57;100356.47;;;13.97;62.36
59063;BME280;44851;45.648;9.004;2022-11-12T10:56:52;100351.97;;;14.09;64.05
59063;BME280;44851;45.648;9.004;2022-11-12T10:59:19;100362.78;;;14.16;63.47
59063;BME280;44851;45.648;9.004;2022-11-12T11:01:56;100359.31;;;14.15;62.40
59063;BME280;44851;45.648;9.004;2022-11-12T11:06:58;100353.69;;;14.20;62.65
59063;BME280;44851;45.648;9.004;2022-11-12T11:09:25;100347.53;;;14.21;62.49
59063;BME280;44851;45.648;9.004;2022-11-12T11:11:51;100336.31;;;14.19;61.81
59063;BME280;44851;45.648;9.004;2022-11-12T11:14:30;100335.47;;;14.39;61.89
59063;BME280;44851;45.648;9.004;2022-11-12T11:17:04;100338.09;;;14.39;60.47
59063;BME280;44851;45.648;9.004;2022-11-12T11:19:42;100336.03;;;14.43;60.96
59063;BME280;44851;45.648;9.004;2022-11-12T11:25:20;100327.09;;;14.45;59.34
59063;BME280;44851;45.648;9.004;2022-11-12T11:31:24;100311.94;;;14.59;61.32
59063;BME280;44851;45.648;9.004;2022-11-12T11:44:13;100292.22;;;14.74;60.22
59063;BME280;44851;45.648;9.004;2022-11-12T11:50:19;100282.44;;;14.76;58.21
59063;BME280;44851;45.648;9.004;2022-11-12T11:53:09;100279.63;;;14.58;57.73
59063;BME280;44851;45.648;9.004;2022-11-12T11:59:29;100291.22;;;14.56;57.81
59063;BME280;44851;45.648;9.004;2022-11-12T12:02:25;100281.59;;;14.66;58.77
59063;BME280;44851;45.648;9.004;2022-11-12T12:05:00;100276.84;;;14.60;58.42
59063;BME280;44851;45.648;9.004;2022-11-12T12:07:47;100290.53;;;14.63;58.68
59063;BME280;44851;45.648;9.004;2022-11-12T12:10:24;100279.75;;;14.57;59.75
59063;BME280;44851;45.648;9.004;2022-11-12T12:18:37;100274.94;;;14.62;59.83
59063;BME280;44851;45.648;9.004;2022-11-12T12:21:15;100266.25;;;14.61;60.58
59063;BME280;44851;45.648;9.004;2022-11-12T12:26:30;100257.00;;;14.67;59.50
59063;BME280;44851;45.648;9.004;2022-11-12T12:29:16;100253.66;;;14.65;59.50
59063;BME280;44851;45.648;9.004;2022-11-12T12:31:50;100247.72;;;14.63;60.00
59063;BME280;44851;45.648;9.004;2022-11-12T12:34:29;100245.34;;;14.60;59.41
59063;BME280;44851;45.648;9.004;2022-11-12T12:37:04;100239.31;;;14.69;60.14
59063;BME280;44851;45.648;9.004;2022-11-12T12:39:39;100226.34;;;14.77;59.64
59063;BME280;44851;45.648;9.004;2022-11-12T12:42:16;100217.63;;;14.86;59.33
59063;BME280;44851;45.648;9.004;2022-11-12T12:44:55;100204.50;;;14.86;58.79
59063;BME280;44851;45.648;9.004;2022-11-12T12:47:34;100206.06;;;14.89;58.99
59063;BME280;44851;45.648;9.004;2022-11-12T12:50:02;100201.38;;;14.92;59.62
59063;BME280;44851;45.648;9.004;2022-11-12T12:52:59;100193.22;;;14.76;58.68
59063;BME280;44851;45.648;9.004;2022-11-12T12:55:45;100187.81;;;14.87;59.08
59063;BME280;44851;45.648;9.004;2022-11-12T12:58:29;100189.63;;;14.77;58.76
59063;BME280;44851;45.648;9.004;2022-11-12T13:17:41;100175.78;;;14.94;58.60
59063;BME280;44851;45.648;9.004;2022-11-12T13:42:51;100150.34;;;14.75;59.60
59063;BME280;44851;45.648;9.004;2022-11-12T13:45:19;100146.78;;;14.67;59.15
59063;BME280;44851;45.648;9.004;2022-11-12T13:47:47;100150.09;;;14.69;58.30
59063;BME280;44851;45.648;9.004;2022-11-12T13:50:23;100150.09;;;14.69;59.02
59063;BME280;44851;45.648;9.004;2022-11-12T13:52:50;100145.97;;;14.66;59.45
59063;BME280;44851;45.648;9.004;2022-11-12T13:55:21;100148.44;;;14.68;60.06
59063;BME280;44851;45.648;9.004;2022-11-12T13:57:51;100151.22;;;14.66;60.57
59063;BME280;44851;45.648;9.004;2022-11-12T14:02:49;100146.91;;;14.56;62.50
59063;BME280;44851;45.648;9.004;2022-11-12T14:05:19;100148.72;;;14.55;62.67
59063;BME280;44851;45.648;9.004;2022-11-12T14:10:29;100149.81;;;14.52;63.08
59063;BME280;44851;45.648;9.004;2022-11-12T14:21:17;100139.31;;;14.33;63.73
59063;BME280;44851;45.648;9.004;2022-11-12T14:23:47;100144.81;;;14.30;63.92
59063;BME280;44851;45.648;9.004;2022-11-12T14:26:32;100143.91;;;14.20;63.16
59063;BME280;44851;45.648;9.004;2022-11-12T14:28:58;100146.47;;;14.31;65.14
59063;BME280;44851;45.648;9.004;2022-11-12T14:31:25;100153.91;;;14.26;64.22
59063;BME280;44851;45.648;9.004;2022-11-12T14:33:50;100154.66;;;14.17;64.76
59063;BME280;44851;45.648;9.004;2022-11-12T14:36:16;100161.84;;;14.15;64.83
59063;BME280;44851;45.648;9.004;2022-11-12T14:38:54;100149.72;;;14.14;64.57
59063;BME280;44851;45.648;9.004;2022-11-12T14:41:23;100154.38;;;14.10;65.39
59063;BME280;44851;45.648;9.004;2022-11-12T14:43:52;100146.91;;;14.06;65.51
59063;BME280;44851;45.648;9.004;2022-11-12T14:46:33;100140.31;;;14.02;64.43
59063;BME280;44851;45.648;9.004;2022-11-12T14:49:03;100129.81;;;14.02;65.61
59063;BME280;44851;45.648;9.004;2022-11-12T14:51:39;100137.75;;;13.90;65.94
59063;BME280;44851;45.648;9.004;2022-11-12T14:54:15;100135.56;;;13.95;65.88
59063;BME280;44851;45.648;9.004;2022-11-12T14:56:44;100127.28;;;13.90;66.70
59063;BME280;44851;45.648;9.004;2022-11-12T14:59:13;100119.59;;;13.98;66.53
59063;BME280;44851;45.648;9.004;2022-11-12T15:02:19;100123.97;;;13.88;65.28
59063;BME280;44851;45.648;9.004;2022-11-12T15:04:58;100132.25;;;13.93;66.36
59063;BME280;44851;45.648;9.004;2022-11-12T15:07:50;100122.03;;;13.81;66.28
59063;BME280;44851;45.648;9.004;2022-11-12T15:13:02;100122.28;;;13.78;67.80